Time;durP1;ratioP1;P1;durP2;ratioP2;P2;SDS_P1;SDS_P2;PMS_P1;PMS_P2;Temp;Humidity;BMP_temperature;BMP_pressure;BME280_temperature;BME280_humidity;BME280_pressure;Samples;Min_cycle;Max_cycle;Signal;HPM_P1;HPM_P2
2022/09/23 00:01:40;;;;;;;;;;;;;;;;;;5057985;28;19970;-53
2022/09/23 00:04:06;;;;;;;;;;;;;;;;;;5070884;28;19928;-51
2022/09/23 00:06:33;;;;;;;;;;;;;;;;;;5059199;28;19924;-53
2022/09/23 00:09:01;;;;;;;;;;;;;;;;;;5074250;28;20373;-53
2022/09/23 00:11:28;;;;;;;;;;;;;;;;;;5073444;28;19924;-52
2022/09/23 00:13:55;;;;;;;;;;;;;;;;;;5068930;28;19924;-52
2022/09/23 00:16:23;;;;;;;;;;;;;;;;;;5072728;28;19924;-52
2022/09/23 00:18:49;;;;;;;;;;;;;;;;;;5069871;28;19978;-52
2022/09/23 00:21:17;;;;;;;;;;;;;;;;;;5053940;28;20011;-54
2022/09/23 00:23:44;;;;;;;;;;;;;;;;;;5055995;28;19928;-51
2022/09/23 00:26:13;;;;;;;;;;;;;;;;;;5072623;28;19924;-52
2022/09/23 00:28:39;;;;;;;;;;;;;;;;;;5060786;28;20070;-54
2022/09/23 00:31:07;;;;;;;;;;;;;;;;;;5056301;28;20262;-54
2022/09/23 00:33:33;;;;;;;;;;;;;;;;;;5073679;28;19932;-55
2022/09/23 00:36:00;;;;;;;;;;;;;;;;;;5063981;28;20370;-54
2022/09/23 00:38:27;;;;;;;;;;;;;;;;;;5073452;28;19929;-54
2022/09/23 00:40:53;;;;;;;;;;;;;;;;;;5073587;28;19931;-53
2022/09/23 00:43:35;;;;;;;;;;;;;;;;;;5054700;28;19931;-52
2022/09/23 00:46:03;;;;;;;;;;;;;;;;;;5059411;28;19971;-54
2022/09/23 00:48:30;;;;;;;;;;;;;;;;;;5053231;28;19956;-56
2022/09/23 00:50:56;;;;;;;;;;;;;;;;;;5064183;28;19978;-52
2022/09/23 00:53:25;;;;;;;;;;;;;;;;;;5073323;28;19924;-51
2022/09/23 00:55:54;;;;;;;;;;;;;;;;;;5064686;28;19924;-52
2022/09/23 00:58:23;;;;;;;;;;;;;;;;;;5073202;28;20001;-53
2022/09/23 01:00:50;;;;;;;;;;;;;;;;;;5063494;28;20111;-51
2022/09/23 01:03:18;;;;;;;;;;;;;;;;;;5070035;28;19931;-54
2022/09/23 01:05:45;;;;;;;;;;;;;;;;;;5064341;28;19924;-51
2022/09/23 01:08:12;;;;;;;;;;;;;;;;;;5070641;28;19932;-53
2022/09/23 01:10:43;;;;;;;;;;;;;;;;;;5054509;28;19978;-54
2022/09/23 01:13:15;;;;;;;;;;;;;;;;;;5053052;28;19924;-54
2022/09/23 01:15:47;;;;;;;;;;;;;;;;;;5055827;28;19992;-56
2022/09/23 01:18:20;;;;;;;;;;;;;;;;;;5067936;28;20246;-55
2022/09/23 01:20:58;;;;;;;;;;;;;;;;;;5072702;28;19924;-53
2022/09/23 01:23:37;;;;;;;;;;;;;;;;;;5072367;28;20372;-54
2022/09/23 01:26:15;;;;;;;;;;;;;;;;;;5061028;28;19929;-54
2022/09/23 01:28:50;;;;;;;;;;;;;;;;;;5067293;28;19974;-52
2022/09/23 01:31:21;;;;;;;;;;;;;;;;;;5052615;28;19924;-52
2022/09/23 01:33:49;;;;;;;;;;;;;;;;;;5052613;28;20412;-55
2022/09/23 01:36:20;;;;;;;;;;;;;;;;;;5052889;28;19924;-55
2022/09/23 01:38:50;;;;;;;;;;;;;;;;;;5067980;28;19931;-54
2022/09/23 01:41:24;;;;;;;;;;;;;;;;;;5060938;28;20106;-51
2022/09/23 01:43:58;;;;;;;;;;;;;;;;;;5054638;28;19944;-54
2022/09/23 01:46:27;;;;;;;;;;;;;;;;;;5072584;28;20389;-51
2022/09/23 01:48:56;;;;;;;;;;;;;;;;;;5060064;28;19925;-53
2022/09/23 01:51:24;;;;;;;;;;;;;;;;;;5072140;28;20339;-53
2022/09/23 01:53:54;;;;;;;;;;;;;;;;;;5059313;28;19925;-54
2022/09/23 01:56:22;;;;;;;;;;;;;;;;;;5052478;28;19925;-57
2022/09/23 01:58:51;;;;;;;;;;;;;;;;;;5063898;28;20305;-54
2022/09/23 02:01:19;;;;;;;;;;;;;;;;;;5070179;28;19931;-54
2022/09/23 02:03:49;;;;;;;;;;;;;;;;;;5071947;28;19924;-54
2022/09/23 02:06:18;;;;;;;;;;;;;;;;;;5071192;28;20034;-52
2022/09/23 02:08:46;;;;;;;;;;;;;;;;;;5071874;28;20015;-54
2022/09/23 02:11:14;;;;;;;;;;;;;;;;;;5059712;28;19931;-53
2022/09/23 02:13:43;;;;;;;;;;;;;;;;;;5053700;28;19931;-53
2022/09/23 02:16:13;;;;;;;;;;;;;;;;;;5058947;28;19986;-55
2022/09/23 02:18:42;;;;;;;;;;;;;;;;;;5064899;28;19924;-56
2022/09/23 02:21:10;;;;;;;;;;;;;;;;;;5068562;28;19933;-53
2022/09/23 02:23:40;;;;;;;;;;;;;;;;;;5051766;28;19925;-55
2022/09/23 02:26:08;;;;;;;;;;;;;;;;;;5055544;28;19925;-52
2022/09/23 02:28:39;;;;;;;;;;;;;;;;;;5051639;28;20008;-57
2022/09/23 02:31:10;;;;;;;;;;;;;;;;;;5064627;28;20297;-56
2022/09/23 02:33:40;;;;;;;;;;;;;;;;;;5067783;28;19947;-55
2022/09/23 02:36:09;;;;;;;;;;;;;;;;;;5069309;28;19929;-57
2022/09/23 02:38:38;;;;;;;;;;;;;;;;;;5056635;28;19929;-56
2022/09/23 02:41:10;;;;;;;;;;;;;;;;;;5055862;28;20454;-52
2022/09/23 02:43:41;;;;;;;;;;;;;;;;;;5071486;28;20408;-53
2022/09/23 02:46:08;;;;;;;;;;;;;;;;;;5056999;28;20392;-51
2022/09/23 02:48:39;;;;;;;;;;;;;;;;;;5071336;28;19925;-52
2022/09/23 02:51:06;;;;;;;;;;;;;;;;;;5056350;28;20306;-59
2022/09/23 02:53:33;;;;;;;;;;;;;;;;;;5055613;28;19924;-55
2022/09/23 02:56:01;;;;;;;;;;;;;;;;;;5052119;28;19936;-55
2022/09/23 02:58:28;;;;;;;;;;;;;;;;;;5052198;28;19936;-53
2022/09/23 03:01:00;;;;;;;;;;;;;;;;;;5055768;28;19924;-52
2022/09/23 03:03:36;;;;;;;;;;;;;;;;;;5071581;28;19975;-52
2022/09/23 03:06:08;;;;;;;;;;;;;;;;;;5054371;28;20357;-53
2022/09/23 03:08:41;;;;;;;;;;;;;;;;;;5058745;28;19930;-54
2022/09/23 03:11:11;;;;;;;;;;;;;;;;;;5072582;28;20035;-53
2022/09/23 03:13:45;;;;;;;;;;;;;;;;;;5056331;28;19971;-51
2022/09/23 03:16:15;;;;;;;;;;;;;;;;;;5064699;28;19935;-53
2022/09/23 03:18:45;;;;;;;;;;;;;;;;;;5058178;28;20364;-52
2022/09/23 03:21:14;;;;;;;;;;;;;;;;;;5054835;28;19971;-53
2022/09/23 03:23:41;;;;;;;;;;;;;;;;;;5065579;28;20069;-50
2022/09/23 03:26:11;;;;;;;;;;;;;;;;;;5097284;22;19923;-75
2022/09/23 03:28:40;;;;;;;;;;;;;;;;;;5106083;28;20293;-74
2022/09/23 03:31:07;;;;;;;;;;;;;;;;;;5103940;28;19924;-75
2022/09/23 03:33:34;;;;;;;;;;;;;;;;;;5097287;28;19967;-74
2022/09/23 03:38:51;;;;;;;;;;;;;;;;;;5101749;28;19934;-75
2022/09/23 03:41:21;;;;;;;;;;;;;;;;;;5100490;28;20266;-75
2022/09/23 03:43:48;;;;;;;;;;;;;;;;;;5116530;28;19984;-75
2022/09/23 03:46:17;;;;;;;;;;;;;;;;;;5100966;28;19930;-76
2022/09/23 03:48:44;;;;;;;;;;;;;;;;;;5098097;28;19924;-75
2022/09/23 03:51:17;;;;;;;;;;;;;;;;;;5096758;28;20007;-76
2022/09/23 03:53:44;;;;;;;;;;;;;;;;;;5114138;28;19966;-75
2022/09/23 03:56:11;;;;;;;;;;;;;;;;;;5116697;28;20384;-75
2022/09/23 03:58:39;;;;;;;;;;;;;;;;;;5111943;28;19931;-75
2022/09/23 04:01:06;;;;;;;;;;;;;;;;;;5112962;28;19924;-75
2022/09/23 04:03:32;;;;;;;;;;;;;;;;;;5103533;28;19930;-74
2022/09/23 04:05:59;;;;;;;;;;;;;;;;;;5116066;28;19924;-75
2022/09/23 04:08:26;;;;;;;;;;;;;;;;;;5098675;28;20018;-75
2022/09/23 04:10:52;;;;;;;;;;;;;;;;;;5108772;28;20604;-76
2022/09/23 04:13:19;;;;;;;;;;;;;;;;;;5095719;28;20451;-75
2022/09/23 04:15:49;;;;;;;;;;;;;;;;;;5095905;28;20006;-75
2022/09/23 04:18:16;;;;;;;;;;;;;;;;;;5114811;28;19924;-75
2022/09/23 04:20:42;;;;;;;;;;;;;;;;;;5097078;28;19930;-75
2022/09/23 04:23:08;;;;;;;;;;;;;;;;;;5102600;28;19959;-76
2022/09/23 04:25:35;;;;;;;;;;;;;;;;;;5129754;28;19924;-73
2022/09/23 04:28:01;;;;;;;;;;;;;;;;;;5139747;28;19967;-71
2022/09/23 04:30:28;;;;;;;;;;;;;;;;;;5136656;27;19971;-73
2022/09/23 04:32:55;;;;;;;;;;;;;;;;;;5132263;27;19964;-74
2022/09/23 04:35:22;;;;;;;;;;;;;;;;;;5119585;28;20024;-74
2022/09/23 04:37:48;;;;;;;;;;;;;;;;;;5128742;28;19983;-74
2022/09/23 04:40:15;;;;;;;;;;;;;;;;;;5112303;28;20019;-75
2022/09/23 04:42:41;;;;;;;;;;;;;;;;;;5098689;28;20387;-75
2022/09/23 04:45:08;;;;;;;;;;;;;;;;;;5103604;28;19924;-74
2022/09/23 04:47:34;;;;;;;;;;;;;;;;;;5102122;28;19923;-77
2022/09/23 04:50:02;;;;;;;;;;;;;;;;;;5115313;28;19928;-75
2022/09/23 04:52:30;;;;;;;;;;;;;;;;;;5097472;28;19924;-75
2022/09/23 04:54:56;;;;;;;;;;;;;;;;;;5102405;28;19924;-75
2022/09/23 04:57:23;;;;;;;;;;;;;;;;;;5098531;28;20014;-75
2022/09/23 04:59:49;;;;;;;;;;;;;;;;;;5112515;28;19940;-75
2022/09/23 05:02:16;;;;;;;;;;;;;;;;;;5113805;28;19942;-75
2022/09/23 05:04:43;;;;;;;;;;;;;;;;;;5112293;28;19940;-74
2022/09/23 05:07:11;;;;;;;;;;;;;;;;;;5100698;28;19984;-75
2022/09/23 05:09:37;;;;;;;;;;;;;;;;;;5094647;28;19933;-75
2022/09/23 05:12:04;;;;;;;;;;;;;;;;;;5094788;28;19978;-75
2022/09/23 05:14:30;;;;;;;;;;;;;;;;;;5094746;28;19990;-76
2022/09/23 05:16:57;;;;;;;;;;;;;;;;;;5104303;28;19940;-75
2022/09/23 05:19:23;;;;;;;;;;;;;;;;;;5114836;28;20002;-76
2022/09/23 05:21:49;;;;;;;;;;;;;;;;;;5108227;28;19953;-76
2022/09/23 05:24:18;;;;;;;;;;;;;;;;;;5094338;28;19964;-76
2022/09/23 05:26:44;;;;;;;;;;;;;;;;;;5094895;28;20286;-76
2022/09/23 05:29:11;;;;;;;;;;;;;;;;;;5094133;28;19932;-76
2022/09/23 05:31:37;;;;;;;;;;;;;;;;;;5096536;28;19968;-75
2022/09/23 05:34:04;;;;;;;;;;;;;;;;;;5094724;28;19928;-74
2022/09/23 05:36:31;;;;;;;;;;;;;;;;;;5100610;28;19928;-75
2022/09/23 05:38:58;;;;;;;;;;;;;;;;;;5113321;28;19923;-76
2022/09/23 05:41:26;;;;;;;;;;;;;;;;;;5114988;28;19928;-76
2022/09/23 05:43:53;;;;;;;;;;;;;;;;;;5115354;28;19924;-76
2022/09/23 05:46:21;;;;;;;;;;;;;;;;;;5111556;28;19924;-76
2022/09/23 05:48:47;;;;;;;;;;;;;;;;;;5113378;28;19928;-76
2022/09/23 05:51:15;;;;;;;;;;;;;;;;;;5115416;28;19976;-75
2022/09/23 05:53:43;;;;;;;;;;;;;;;;;;5136029;27;19966;-75
2022/09/23 05:56:10;;;;;;;;;;;;;;;;;;5131594;28;20346;-75
2022/09/23 05:58:37;;;;;;;;;;;;;;;;;;5098023;28;20418;-75
2022/09/23 06:01:08;;;;;;;;;;;;;;;;;;5094400;28;19931;-75
2022/09/23 06:03:35;;;;;;;;;;;;;;;;;;5105977;28;20006;-75
2022/09/23 06:06:01;;;;;;;;;;;;;;;;;;5094112;28;20411;-75
2022/09/23 06:08:28;;;;;;;;;;;;;;;;;;5094934;28;19931;-75
2022/09/23 06:10:55;;;;;;;;;;;;;;;;;;5113987;28;19924;-75
2022/09/23 06:13:21;;;;;;;;;;;;;;;;;;5103814;28;19924;-76
2022/09/23 06:15:49;;;;;;;;;;;;;;;;;;5096192;28;19928;-76
2022/09/23 06:18:16;;;;;;;;;;;;;;;;;;5093739;28;20279;-76
2022/09/23 06:20:42;;;;;;;;;;;;;;;;;;5094054;28;19935;-76
2022/09/23 06:23:09;;;;;;;;;;;;;;;;;;5093376;28;19924;-76
2022/09/23 06:25:37;;;;;;;;;;;;;;;;;;5106989;28;20378;-76
2022/09/23 06:28:03;;;;;;;;;;;;;;;;;;5113272;28;19930;-76
2022/09/23 06:30:30;;;;;;;;;;;;;;;;;;5112895;28;20283;-76
2022/09/23 06:32:57;;;;;;;;;;;;;;;;;;5113150;28;19932;-76
2022/09/23 06:35:25;;;;;;;;;;;;;;;;;;5097990;28;19931;-77
2022/09/23 06:37:51;;;;;;;;;;;;;;;;;;5113909;28;20016;-76
2022/09/23 06:40:18;;;;;;;;;;;;;;;;;;5113800;28;19923;-75
2022/09/23 06:42:44;;;;;;;;;;;;;;;;;;5109622;28;19924;-75
2022/09/23 06:45:11;;;;;;;;;;;;;;;;;;5093332;28;20297;-75
2022/09/23 06:47:38;;;;;;;;;;;;;;;;;;5092515;28;19924;-76
2022/09/23 06:50:06;;;;;;;;;;;;;;;;;;5092309;28;19924;-76
2022/09/23 06:52:33;;;;;;;;;;;;;;;;;;5092649;28;19924;-76
2022/09/23 06:55:00;;;;;;;;;;;;;;;;;;5096319;28;19928;-75
2022/09/23 06:57:28;;;;;;;;;;;;;;;;;;5092437;28;19932;-75
2022/09/23 06:59:55;;;;;;;;;;;;;;;;;;5092213;28;20375;-75
2022/09/23 07:02:21;;;;;;;;;;;;;;;;;;5102285;28;20007;-75
2022/09/23 07:04:47;;;;;;;;;;;;;;;;;;5112992;28;19935;-76
2022/09/23 07:07:17;;;;;;;;;;;;;;;;;;5112637;28;20041;-76
2022/09/23 07:09:43;;;;;;;;;;;;;;;;;;5112043;28;19979;-74
2022/09/23 07:12:09;;;;;;;;;;;;;;;;;;5113900;28;19925;-74
2022/09/23 07:14:36;;;;;;;;;;;;;;;;;;5114428;28;19923;-73
2022/09/23 07:17:02;;;;;;;;;;;;;;;;;;5115264;28;19934;-79
2022/09/23 07:19:28;;;;;;;;;;;;;;;;;;5106460;28;19924;-79
2022/09/23 07:21:55;;;;;;;;;;;;;;;;;;5102789;28;19931;-78
2022/09/23 07:24:23;;;;;;;;;;;;;;;;;;5102771;28;19975;-80
2022/09/23 07:26:50;;;;;;;;;;;;;;;;;;5096911;28;19925;-81
2022/09/23 07:29:16;;;;;;;;;;;;;;;;;;5100172;28;19931;-80
2022/09/23 07:31:42;;;;;;;;;;;;;;;;;;5102576;28;19930;-83
2022/09/23 07:34:10;;;;;;;;;;;;;;;;;;5104717;28;19924;-78
2022/09/23 07:36:39;;;;;;;;;;;;;;;;;;5097369;28;19924;-78
2022/09/23 07:39:06;;;;;;;;;;;;;;;;;;5092050;28;19924;-76
2022/09/23 07:41:34;;;;;;;;;;;;;;;;;;5092314;28;19924;-78
2022/09/23 07:44:01;;;;;;;;;;;;;;;;;;5096228;28;20010;-77
2022/09/23 07:46:29;;;;;;;;;;;;;;;;;;5108132;28;19997;-78
2022/09/23 07:48:55;;;;;;;;;;;;;;;;;;5098072;28;19924;-78
2022/09/23 07:51:24;;;;;;;;;;;;;;;;;;5113871;28;19947;-78
2022/09/23 07:53:51;;;;;;;;;;;;;;;;;;5100341;28;19927;-77
2022/09/23 07:56:18;;;;;;;;;;;;;;;;;;5092310;28;19925;-77
2022/09/23 07:58:58;;;;;;;;;;;;;;;;;;5094230;28;19969;-76
2022/09/23 08:01:25;;;;;;;;;;;;;;;;;;5104230;28;19924;-78
2022/09/23 08:03:51;;;;;;;;;;;;;;;;;;5109709;28;19974;-78
2022/09/23 08:06:18;;;;;;;;;;;;;;;;;;5118247;28;19987;-78
2022/09/23 08:08:45;;;;;;;;;;;;;;;;;;5119958;28;19963;-78
2022/09/23 08:11:13;;;;;;;;;;;;;;;;;;5119280;28;20347;-77
2022/09/23 08:13:39;;;;;;;;;;;;;;;;;;5118464;28;19931;-78
2022/09/23 08:16:07;;;;;;;;;;;;;;;;;;5119241;28;19930;-77
2022/09/23 08:18:34;;;;;;;;;;;;;;;;;;5116337;28;19946;-78
2022/09/23 08:21:01;;;;;;;;;;;;;;;;;;5111075;28;19930;-77
2022/09/23 08:23:32;;;;;;;;;;;;;;;;;;5120539;28;19972;-77
2022/09/23 08:25:59;;;;;;;;;;;;;;;;;;5114520;28;19924;-77
2022/09/23 08:28:26;;;;;;;;;;;;;;;;;;5098446;28;19924;-77
2022/09/23 08:30:53;;;;;;;;;;;;;;;;;;5106486;28;20357;-76
2022/09/23 08:33:21;;;;;;;;;;;;;;;;;;5116079;28;19924;-77
2022/09/23 08:35:47;;;;;;;;;;;;;;;;;;5115573;28;19924;-77
2022/09/23 08:38:13;;;;;;;;;;;;;;;;;;5109672;28;19939;-77
2022/09/23 08:40:41;;;;;;;;;;;;;;;;;;5109540;28;20310;-77
2022/09/23 08:43:09;;;;;;;;;;;;;;;;;;5122357;28;19923;-78
2022/09/23 08:45:37;;;;;;;;;;;;;;;;;;5139341;27;19927;-77
2022/09/23 08:48:07;;;;;;;;;;;;;;;;;;5138828;28;19979;-76
2022/09/23 08:50:40;;;;;;;;;;;;;;;;;;5138858;27;19924;-78
2022/09/23 08:53:12;;;;;;;;;;;;;;;;;;5119244;28;19991;-77
2022/09/23 08:55:41;;;;;;;;;;;;;;;;;;5122527;28;19927;-77
2022/09/23 08:58:24;;;;;;;;;;;;;;;;;;5106887;28;19968;-78
2022/09/23 09:00:55;;;;;;;;;;;;;;;;;;5113873;28;19924;-77
2022/09/23 09:03:23;;;;;;;;;;;;;;;;;;5115041;28;19928;-78
2022/09/23 09:05:52;;;;;;;;;;;;;;;;;;5112090;28;19939;-79
2022/09/23 09:08:22;;;;;;;;;;;;;;;;;;5114711;28;19923;-79
2022/09/23 09:10:51;;;;;;;;;;;;;;;;;;5102186;28;20341;-80
2022/09/23 09:13:22;;;;;;;;;;;;;;;;;;5097888;28;19927;-79
2022/09/23 09:15:53;;;;;;;;;;;;;;;;;;5097814;28;19930;-78
2022/09/23 09:18:20;;;;;;;;;;;;;;;;;;5106437;28;19924;-78
2022/09/23 09:20:50;;;;;;;;;;;;;;;;;;5099507;28;19924;-78
2022/09/23 09:23:21;;;;;;;;;;;;;;;;;;5098695;28;19942;-79
2022/09/23 09:25:49;;;;;;;;;;;;;;;;;;5102080;28;19931;-80
2022/09/23 09:28:18;;;;;;;;;;;;;;;;;;5102380;28;19924;-78
2022/09/23 09:30:45;;;;;;;;;;;;;;;;;;5093659;28;19935;-80
2022/09/23 09:33:14;;;;;;;;;;;;;;;;;;5095212;28;19931;-79
2022/09/23 09:35:42;;;;;;;;;;;;;;;;;;5103833;28;20276;-81
2022/09/23 09:38:08;;;;;;;;;;;;;;;;;;5100311;28;20023;-78
2022/09/23 09:40:42;;;;;;;;;;;;;;;;;;5102496;28;19932;-79
2022/09/23 09:43:09;;;;;;;;;;;;;;;;;;5099985;28;19938;-81
2022/09/23 09:45:52;;;;;;;;;;;;;;;;;;5097353;28;20002;-78
2022/09/23 09:48:23;;;;;;;;;;;;;;;;;;5098317;28;19928;-80
2022/09/23 09:50:50;;;;;;;;;;;;;;;;;;5100067;28;19932;-79
2022/09/23 09:53:23;;;;;;;;;;;;;;;;;;5101847;28;19938;-80
2022/09/23 09:56:02;;;;;;;;;;;;;;;;;;5099789;28;19940;-81
2022/09/23 09:58:28;;;;;;;;;;;;;;;;;;5102344;28;19923;-81
2022/09/23 10:00:55;;;;;;;;;;;;;;;;;;5093833;28;20393;-82
2022/09/23 10:03:42;;;;;;;;;;;;;;;;;;5109741;28;20437;-79
2022/09/23 10:06:17;;;;;;;;;;;;;;;;;;5104716;28;19924;-77
2022/09/23 10:08:47;;;;;;;;;;;;;;;;;;5099711;28;19924;-78
2022/09/23 10:11:16;;;;;;;;;;;;;;;;;;5096108;28;20379;-77
2022/09/23 10:14:00;;;;;;;;;;;;;;;;;;5095267;28;20007;-78
2022/09/23 10:16:26;;;;;;;;;;;;;;;;;;5096085;28;20232;-77
2022/09/23 10:18:55;;;;;;;;;;;;;;;;;;5105377;28;19924;-77
2022/09/23 10:21:27;;;;;;;;;;;;;;;;;;5113216;28;19923;-78
2022/09/23 10:23:56;;;;;;;;;;;;;;;;;;5114091;28;19924;-77
2022/09/23 10:26:29;;;;;;;;;;;;;;;;;;5115218;28;19923;-76
2022/09/23 10:28:58;;;;;;;;;;;;;;;;;;5113474;28;19919;-76
2022/09/23 10:31:25;;;;;;;;;;;;;;;;;;5116058;28;19928;-78
2022/09/23 10:33:53;;;;;;;;;;;;;;;;;;5113448;28;19975;-76
2022/09/23 10:36:20;;;;;;;;;;;;;;;;;;5128095;28;20242;-77
2022/09/23 10:38:48;;;;;;;;;;;;;;;;;;5121043;28;19924;-77
2022/09/23 10:47:09;;;;;;;;;;;;;;;;;;5126555;28;19970;-76
2022/09/23 10:49:56;;;;;;;;;;;;;;;;;;5104801;28;19932;-76
2022/09/23 10:52:31;;;;;;;;;;;;;;;;;;5110339;28;19934;-79
2022/09/23 10:55:04;;;;;;;;;;;;;;;;;;5093010;28;19924;-77
2022/09/23 10:57:40;;;;;;;;;;;;;;;;;;5096802;28;19963;-77
2022/09/23 11:00:15;;;;;;;;;;;;;;;;;;5098032;28;19958;-79
2022/09/23 11:02:49;;;;;;;;;;;;;;;;;;5100940;28;19932;-81
2022/09/23 11:05:22;;;;;;;;;;;;;;;;;;5096190;28;20757;-82
2022/09/23 11:07:54;;;;;;;;;;;;;;;;;;5092797;28;19940;-77
2022/09/23 11:10:31;;;;;;;;;;;;;;;;;;5103594;28;19931;-79
2022/09/23 11:13:02;;;;;;;;;;;;;;;;;;5111970;28;19923;-77
2022/09/23 11:15:36;;;;;;;;;;;;;;;;;;5112249;28;19924;-77
2022/09/23 11:18:22;;;;;;;;;;;;;;;;;;5100876;28;19932;-77
2022/09/23 11:20:53;;;;;;;;;;;;;;;;;;5090644;28;19928;-77
2022/09/23 11:23:28;;;;;;;;;;;;;;;;;;5091268;28;19924;-77
2022/09/23 11:26:00;;;;;;;;;;;;;;;;;;5090349;28;19924;-77
2022/09/23 11:28:41;;;;;;;;;;;;;;;;;;5091020;28;19924;-77
2022/09/23 11:31:15;;;;;;;;;;;;;;;;;;5097962;28;19998;-77
2022/09/23 11:33:49;;;;;;;;;;;;;;;;;;5108774;28;19967;-78
2022/09/23 11:36:20;;;;;;;;;;;;;;;;;;5106430;28;19932;-78
2022/09/23 11:38:48;;;;;;;;;;;;;;;;;;5103640;28;20014;-77
2022/09/23 11:41:20;;;;;;;;;;;;;;;;;;5102789;28;20000;-77
2022/09/23 11:43:50;;;;;;;;;;;;;;;;;;5100745;28;20414;-77
2022/09/23 11:46:23;;;;;;;;;;;;;;;;;;5096827;28;19970;-78
2022/09/23 11:48:51;;;;;;;;;;;;;;;;;;5100720;28;19924;-77
2022/09/23 11:51:21;;;;;;;;;;;;;;;;;;5119123;28;20007;-78
2022/09/23 11:53:50;;;;;;;;;;;;;;;;;;5098971;28;19928;-77
2022/09/23 11:56:22;;;;;;;;;;;;;;;;;;5103593;28;19924;-78
2022/09/23 11:58:54;;;;;;;;;;;;;;;;;;5116217;28;19934;-77
2022/09/23 12:01:30;;;;;;;;;;;;;;;;;;5115699;28;19934;-78
2022/09/23 12:03:59;;;;;;;;;;;;;;;;;;5096616;28;19924;-77
2022/09/23 12:06:31;;;;;;;;;;;;;;;;;;5098548;28;19928;-78
2022/09/23 12:08:59;;;;;;;;;;;;;;;;;;5108623;28;19924;-77
2022/09/23 12:11:28;;;;;;;;;;;;;;;;;;5114735;28;20007;-78
2022/09/23 12:13:59;;;;;;;;;;;;;;;;;;5118635;28;19997;-78
2022/09/23 12:16:34;;;;;;;;;;;;;;;;;;5116999;28;19927;-77
2022/09/23 12:19:05;;;;;;;;;;;;;;;;;;5117928;28;19923;-78
2022/09/23 12:21:39;;;;;;;;;;;;;;;;;;5114790;28;19924;-77
2022/09/23 12:24:14;;;;;;;;;;;;;;;;;;5113988;28;19924;-77
2022/09/23 12:26:42;;;;;;;;;;;;;;;;;;5115347;28;19931;-78
2022/09/23 12:29:11;;;;;;;;;;;;;;;;;;5113494;28;19924;-77
2022/09/23 12:31:39;;;;;;;;;;;;;;;;;;5100688;28;19931;-77
2022/09/23 12:34:19;;;;;;;;;;;;;;;;;;5098603;28;20397;-77
2022/09/23 12:36:46;;;;;;;;;;;;;;;;;;5111601;28;20074;-78
2022/09/23 12:39:14;;;;;;;;;;;;;;;;;;5112873;28;19924;-77
2022/09/23 12:41:42;;;;;;;;;;;;;;;;;;5132202;28;19930;-77
2022/09/23 12:44:27;;;;;;;;;;;;;;;;;;5136535;28;20249;-76
2022/09/23 12:47:08;;;;;;;;;;;;;;;;;;5134758;28;19979;-76
2022/09/23 12:49:37;;;;;;;;;;;;;;;;;;5094471;28;19924;-77
2022/09/23 12:52:14;;;;;;;;;;;;;;;;;;5095759;28;19924;-78
2022/09/23 12:54:41;;;;;;;;;;;;;;;;;;5099561;28;19924;-77
2022/09/23 12:57:10;;;;;;;;;;;;;;;;;;5113080;28;20337;-78
2022/09/23 12:59:53;;;;;;;;;;;;;;;;;;5108742;28;20361;-78
2022/09/23 13:02:26;;;;;;;;;;;;;;;;;;5106196;28;20297;-78
2022/09/23 13:07:42;;;;;;;;;;;;;;;;;;5101363;28;20053;-79
2022/09/23 13:10:15;;;;;;;;;;;;;;;;;;5113800;28;19931;-77
2022/09/23 13:12:42;;;;;;;;;;;;;;;;;;5115382;28;19927;-77
2022/09/23 13:15:15;;;;;;;;;;;;;;;;;;5093595;28;20055;-77
2022/09/23 13:17:41;;;;;;;;;;;;;;;;;;5092364;28;20354;-79
2022/09/23 13:20:33;;;;;;;;;;;;;;;;;;5092870;28;19930;-77
2022/09/23 13:23:05;;;;;;;;;;;;;;;;;;5104136;28;19924;-76
2022/09/23 13:25:34;;;;;;;;;;;;;;;;;;5113268;28;20443;-76
2022/09/23 13:28:01;;;;;;;;;;;;;;;;;;5110620;28;19923;-78
2022/09/23 13:30:28;;;;;;;;;;;;;;;;;;5099939;28;19928;-77
2022/09/23 13:33:01;;;;;;;;;;;;;;;;;;5097824;28;19931;-75
2022/09/23 13:35:33;;;;;;;;;;;;;;;;;;5105290;28;20021;-76
2022/09/23 13:38:09;;;;;;;;;;;;;;;;;;5099988;28;19928;-77
2022/09/23 13:40:36;;;;;;;;;;;;;;;;;;5109366;28;20298;-76
2022/09/23 13:43:04;;;;;;;;;;;;;;;;;;5112608;28;19924;-77
2022/09/23 13:45:32;;;;;;;;;;;;;;;;;;5093240;28;20471;-77
2022/09/23 13:48:01;;;;;;;;;;;;;;;;;;5092531;28;19924;-78
2022/09/23 13:50:29;;;;;;;;;;;;;;;;;;5107972;28;19928;-77
2022/09/23 13:52:57;;;;;;;;;;;;;;;;;;5104149;28;20361;-78
2022/09/23 13:55:31;;;;;;;;;;;;;;;;;;5091599;28;21339;-76
2022/09/23 13:57:58;;;;;;;;;;;;;;;;;;5093858;28;19932;-76
2022/09/23 14:00:25;;;;;;;;;;;;;;;;;;5091415;28;19931;-77
2022/09/23 14:02:52;;;;;;;;;;;;;;;;;;5103809;28;19958;-77
2022/09/23 14:05:21;;;;;;;;;;;;;;;;;;5100700;28;19932;-76
2022/09/23 14:07:48;;;;;;;;;;;;;;;;;;5109009;28;19967;-77
2022/09/23 14:10:17;;;;;;;;;;;;;;;;;;5101586;28;19923;-77
2022/09/23 14:12:44;;;;;;;;;;;;;;;;;;5091741;28;19924;-77
2022/09/23 14:15:13;;;;;;;;;;;;;;;;;;5099549;28;19932;-77
2022/09/23 14:17:39;;;;;;;;;;;;;;;;;;5096598;28;20371;-77
2022/09/23 14:20:12;;;;;;;;;;;;;;;;;;5100746;28;19951;-77
2022/09/23 14:22:38;;;;;;;;;;;;;;;;;;5090906;28;20454;-77
2022/09/23 14:25:08;;;;;;;;;;;;;;;;;;5094201;28;19924;-76
2022/09/23 14:27:38;;;;;;;;;;;;;;;;;;5097208;28;19924;-77
2022/09/23 14:30:05;;;;;;;;;;;;;;;;;;5095025;28;20010;-77
2022/09/23 14:32:32;;;;;;;;;;;;;;;;;;5092427;28;19970;-77
2022/09/23 14:35:08;;;;;;;;;;;;;;;;;;5099494;28;19940;-77
2022/09/23 14:40:29;;;;;;;;;;;;;;;;;;5033461;28;19933;-77
2022/09/23 14:43:03;;;;;;;;;;;;;;;;;;5098102;28;20409;-76
2022/09/23 14:45:31;;;;;;;;;;;;;;;;;;5094150;28;19935;-77
2022/09/23 14:47:58;;;;;;;;;;;;;;;;;;5096508;28;19928;-77
2022/09/23 14:50:38;;;;;;;;;;;;;;;;;;5095816;28;19942;-77
2022/09/23 14:53:05;;;;;;;;;;;;;;;;;;5101571;28;19975;-77
2022/09/23 14:55:31;;;;;;;;;;;;;;;;;;5095431;28;19986;-77
2022/09/23 14:58:05;;;;;;;;;;;;;;;;;;5100990;28;19971;-77
2022/09/23 15:00:32;;;;;;;;;;;;;;;;;;5104167;28;20306;-76
2022/09/23 15:02:59;;;;;;;;;;;;;;;;;;5102140;28;19927;-77
2022/09/23 15:05:31;;;;;;;;;;;;;;;;;;5097767;28;20013;-76
2022/09/23 15:08:00;;;;;;;;;;;;;;;;;;5103613;28;19934;-78
2022/09/23 15:10:29;;;;;;;;;;;;;;;;;;5101135;28;19988;-76
2022/09/23 15:13:02;;;;;;;;;;;;;;;;;;5115118;28;20039;-77
2022/09/23 15:15:30;;;;;;;;;;;;;;;;;;5106025;28;20017;-76
2022/09/23 15:18:03;;;;;;;;;;;;;;;;;;5094691;28;19924;-78
2022/09/23 15:20:30;;;;;;;;;;;;;;;;;;5095896;28;19924;-77
2022/09/23 15:22:57;;;;;;;;;;;;;;;;;;5094429;28;20410;-77
2022/09/23 15:25:26;;;;;;;;;;;;;;;;;;5114318;28;20007;-77
2022/09/23 15:27:57;;;;;;;;;;;;;;;;;;5108397;28;20008;-77
2022/09/23 15:30:24;;;;;;;;;;;;;;;;;;5111816;28;19938;-78
2022/09/23 15:32:52;;;;;;;;;;;;;;;;;;5107115;28;19933;-77
2022/09/23 15:35:20;;;;;;;;;;;;;;;;;;5099491;28;19951;-78
2022/09/23 15:37:48;;;;;;;;;;;;;;;;;;5104172;28;19974;-78
2022/09/23 15:40:17;;;;;;;;;;;;;;;;;;5106989;28;19924;-77
2022/09/23 15:42:45;;;;;;;;;;;;;;;;;;5110507;28;20050;-76
2022/09/23 15:45:12;;;;;;;;;;;;;;;;;;5131359;28;19993;-77
2022/09/23 15:47:39;;;;;;;;;;;;;;;;;;5124050;28;20283;-77
2022/09/23 15:50:07;;;;;;;;;;;;;;;;;;5099928;28;19931;-78
2022/09/23 15:52:34;;;;;;;;;;;;;;;;;;5112968;28;20515;-78
2022/09/23 15:55:00;;;;;;;;;;;;;;;;;;5117927;28;19946;-78
2022/09/23 15:57:26;;;;;;;;;;;;;;;;;;5116030;28;19930;-77
2022/09/23 15:59:57;;;;;;;;;;;;;;;;;;5116902;28;19977;-77
2022/09/23 16:02:23;;;;;;;;;;;;;;;;;;5106919;28;19924;-78
2022/09/23 16:04:51;;;;;;;;;;;;;;;;;;5101846;28;19931;-77
2022/09/23 16:07:19;;;;;;;;;;;;;;;;;;5112092;28;19928;-77
2022/09/23 16:09:46;;;;;;;;;;;;;;;;;;5095129;28;19928;-76
2022/09/23 16:12:14;;;;;;;;;;;;;;;;;;5098915;28;20010;-77
2022/09/23 16:14:40;;;;;;;;;;;;;;;;;;5094903;28;19947;-77
2022/09/23 16:17:07;;;;;;;;;;;;;;;;;;5095643;28;20443;-77
2022/09/23 16:19:34;;;;;;;;;;;;;;;;;;5112559;28;19924;-76
2022/09/23 16:22:00;;;;;;;;;;;;;;;;;;5110390;28;20526;-76
2022/09/23 16:24:29;;;;;;;;;;;;;;;;;;5102523;28;19966;-78
2022/09/23 16:26:58;;;;;;;;;;;;;;;;;;5095536;28;19967;-77
2022/09/23 16:29:25;;;;;;;;;;;;;;;;;;5094136;28;19977;-77
2022/09/23 16:31:51;;;;;;;;;;;;;;;;;;5097126;28;19925;-77
2022/09/23 16:34:19;;;;;;;;;;;;;;;;;;5111464;22;19924;-74
2022/09/23 16:36:47;;;;;;;;;;;;;;;;;;5077936;28;20305;-75
2022/09/23 16:39:14;;;;;;;;;;;;;;;;;;5091890;28;19924;-74
2022/09/23 16:41:42;;;;;;;;;;;;;;;;;;5093412;28;19924;-75
2022/09/23 16:44:09;;;;;;;;;;;;;;;;;;5096442;28;19986;-74
2022/09/23 16:46:36;;;;;;;;;;;;;;;;;;5093769;28;19984;-75
2022/09/23 16:49:04;;;;;;;;;;;;;;;;;;5096108;28;19928;-74
2022/09/23 16:51:36;;;;;;;;;;;;;;;;;;5096507;28;19942;-77
2022/09/23 16:54:05;;;;;;;;;;;;;;;;;;5094349;28;19931;-76
2022/09/23 16:56:31;;;;;;;;;;;;;;;;;;5103317;28;19928;-73
2022/09/23 16:58:59;;;;;;;;;;;;;;;;;;5113334;28;19957;-74
2022/09/23 17:04:10;;;;;;;;;;;;;;;;;;5093261;28;20008;-75
2022/09/23 17:06:41;;;;;;;;;;;;;;;;;;5104371;28;20022;-74
2022/09/23 17:09:10;;;;;;;;;;;;;;;;;;5106063;28;19924;-74
2022/09/23 17:11:37;;;;;;;;;;;;;;;;;;5101833;28;19935;-74
2022/09/23 17:14:05;;;;;;;;;;;;;;;;;;5102202;27;20397;-77
2022/09/23 17:16:33;;;;;;;;;;;;;;;;;;5100249;28;20014;-74